createdAt,value
2018-09-16T00:00:18.025Z,1019.31
2018-09-16T00:01:18.005Z,1019.29
2018-09-16T00:02:17.989Z,1019.27
2018-09-16T00:03:17.967Z,1019.26
2018-09-16T00:04:17.948Z,1019.27
2018-09-16T00:05:17.932Z,1019.29
2018-09-16T00:06:17.912Z,1019.29
2018-09-16T00:07:17.890Z,1019.23
2018-09-16T00:08:17.871Z,1019.22
2018-09-16T00:09:17.854Z,1019.23
2018-09-16T00:10:17.845Z,1019.22
2018-09-16T00:11:17.817Z,1019.20
2018-09-16T00:12:17.796Z,1019.23
2018-09-16T00:13:17.785Z,1019.20
2018-09-16T00:14:17.758Z,1019.21
2018-09-16T00:15:17.739Z,1019.21
2018-09-16T00:16:17.721Z,1019.16
2018-09-16T00:17:17.701Z,1019.15
2018-09-16T00:18:17.690Z,1019.18
2018-09-16T00:19:17.665Z,1019.20
2018-09-16T00:20:17.652Z,1019.18
2018-09-16T00:21:17.625Z,1019.16
2018-09-16T00:22:17.606Z,1019.21
2018-09-16T00:23:17.587Z,1019.17
2018-09-16T00:24:17.570Z,1019.19
2018-09-16T00:25:17.549Z,1019.18
2018-09-16T00:26:17.543Z,1019.19
2018-09-16T00:27:17.517Z,1019.21
2018-09-16T00:28:17.533Z,1019.19
2018-09-16T00:29:17.479Z,1019.17
2018-09-16T00:30:17.457Z,1019.17
2018-09-16T00:31:17.439Z,1019.16
2018-09-16T00:32:17.419Z,1019.14
2018-09-16T00:33:17.398Z,1019.19
2018-09-16T00:34:17.388Z,1019.16
2018-09-16T00:35:17.362Z,1019.13
2018-09-16T00:36:17.340Z,1019.13
2018-09-16T00:37:17.326Z,1019.09
2018-09-16T00:38:17.306Z,1019.12
2018-09-16T00:39:17.284Z,1019.08
2018-09-16T00:40:17.265Z,1019.09
2018-09-16T00:41:17.248Z,1019.08
2018-09-16T00:42:17.235Z,1019.07
2018-09-16T00:43:17.208Z,1019.04
2018-09-16T00:44:17.192Z,1019.07
2018-09-16T00:45:17.175Z,1019.06
2018-09-16T00:46:17.151Z,1019.01
2018-09-16T00:47:17.133Z,1019.02
2018-09-16T00:48:17.112Z,1018.99
2018-09-16T00:49:17.092Z,1019.00
2018-09-16T00:50:17.076Z,1019.00
2018-09-16T00:51:17.057Z,1019.01
2018-09-16T00:52:17.037Z,1018.97
2018-09-16T00:53:17.018Z,1019.01
2018-09-16T00:54:17.006Z,1018.94
2018-09-16T00:55:16.978Z,1018.93
2018-09-16T00:56:16.959Z,1018.96
2018-09-16T00:57:16.942Z,1018.92
2018-09-16T00:58:16.920Z,1018.87
2018-09-16T00:59:16.901Z,1018.86
2018-09-16T01:00:16.882Z,1018.85
2018-09-16T01:01:16.862Z,1018.86
2018-09-16T01:02:16.843Z,1018.82
2018-09-16T01:03:16.825Z,1018.84
2018-09-16T01:04:16.805Z,1018.82
2018-09-16T01:05:16.785Z,1018.83
2018-09-16T01:06:16.767Z,1018.83
2018-09-16T01:07:16.748Z,1018.84
2018-09-16T01:08:16.728Z,1018.79
2018-09-16T01:09:16.710Z,1018.80
2018-09-16T01:10:16.692Z,1018.81
2018-09-16T01:11:16.672Z,1018.76
2018-09-16T01:12:16.653Z,1018.77
2018-09-16T01:13:16.637Z,1018.70
2018-09-16T01:14:16.623Z,1018.67
2018-09-16T01:15:16.595Z,1018.68
2018-09-16T01:16:16.575Z,1018.66
2018-09-16T01:17:16.561Z,1018.61
2018-09-16T01:18:16.543Z,1018.58
2018-09-16T01:19:16.525Z,1018.61
2018-09-16T01:20:16.498Z,1018.57
2018-09-16T01:21:16.481Z,1018.55
2018-09-16T01:22:16.461Z,1018.55
2018-09-16T01:23:16.440Z,1018.54
2018-09-16T01:24:16.422Z,1018.54
2018-09-16T01:25:16.404Z,1018.54
2018-09-16T01:26:16.385Z,1018.55
2018-09-16T01:27:16.364Z,1018.55
2018-09-16T01:28:16.347Z,1018.55
2018-09-16T01:29:16.327Z,1018.54
2018-09-16T01:30:16.307Z,1018.55
2018-09-16T01:31:16.287Z,1018.53
2018-09-16T01:32:16.273Z,1018.53
2018-09-16T01:33:16.249Z,1018.54
2018-09-16T01:34:16.234Z,1018.49
2018-09-16T01:35:16.211Z,1018.51
2018-09-16T01:36:16.191Z,1018.44
2018-09-16T01:37:16.173Z,1018.50
2018-09-16T01:38:16.156Z,1018.50
2018-09-16T01:39:16.136Z,1018.46
2018-09-16T01:40:16.125Z,1018.44
2018-09-16T01:41:16.100Z,1018.45
2018-09-16T01:42:16.079Z,1018.45
2018-09-16T01:43:16.056Z,1018.46
2018-09-16T01:44:16.036Z,1018.45
2018-09-16T01:45:16.022Z,1018.44
2018-09-16T01:46:16.003Z,1018.45
2018-09-16T01:47:15.979Z,1018.48
2018-09-16T01:48:15.959Z,1018.42
2018-09-16T01:49:15.944Z,1018.40
2018-09-16T01:50:15.926Z,1018.40
2018-09-16T01:51:15.902Z,1018.42
2018-09-16T01:52:15.885Z,1018.39
2018-09-16T01:53:15.866Z,1018.41
2018-09-16T01:54:15.849Z,1018.38
2018-09-16T01:55:15.828Z,1018.39
2018-09-16T01:56:15.811Z,1018.42
2018-09-16T01:57:15.786Z,1018.41
2018-09-16T01:58:15.770Z,1018.36
2018-09-16T01:59:15.750Z,1018.38
2018-09-16T02:00:15.733Z,1018.41
2018-09-16T02:01:15.710Z,1018.38
2018-09-16T02:02:15.696Z,1018.35
2018-09-16T02:03:15.672Z,1018.37
2018-09-16T02:04:15.652Z,1018.39
2018-09-16T02:05:15.637Z,1018.38
2018-09-16T02:06:15.618Z,1018.36
2018-09-16T02:07:15.595Z,1018.36
2018-09-16T02:08:15.579Z,1018.37
2018-09-16T02:09:15.557Z,1018.35
2018-09-16T02:10:15.537Z,1018.30
2018-09-16T02:11:15.518Z,1018.26
2018-09-16T02:12:15.499Z,1018.26
2018-09-16T02:13:15.479Z,1018.24
2018-09-16T02:14:15.462Z,1018.23
2018-09-16T02:15:15.441Z,1018.23
2018-09-16T02:16:15.422Z,1018.23
2018-09-16T02:17:15.406Z,1018.17
2018-09-16T02:18:15.386Z,1018.21
2018-09-16T02:19:15.367Z,1018.19
2018-09-16T02:20:15.348Z,1018.17
2018-09-16T02:21:15.324Z,1018.20
2018-09-16T02:22:15.307Z,1018.16
2018-09-16T02:23:15.287Z,1018.17
2018-09-16T02:24:15.268Z,1018.19
2018-09-16T02:25:15.251Z,1018.19
2018-09-16T02:26:15.232Z,1018.21
2018-09-16T02:27:15.209Z,1018.19
2018-09-16T02:28:15.190Z,1018.25
2018-09-16T02:29:15.172Z,1018.25
2018-09-16T02:30:15.153Z,1018.21
2018-09-16T02:31:15.135Z,1018.22
2018-09-16T02:32:15.112Z,1018.27
2018-09-16T02:33:15.094Z,1018.22
2018-09-16T02:34:15.082Z,1018.18
2018-09-16T02:35:15.054Z,1018.15
2018-09-16T02:36:15.037Z,1018.14
2018-09-16T02:37:15.025Z,1018.10
2018-09-16T02:38:14.999Z,1018.11
2018-09-16T02:39:14.976Z,1018.06
2018-09-16T02:40:14.956Z,1018.08
2018-09-16T02:41:14.989Z,1018.06
2018-09-16T02:42:14.923Z,1018.07
2018-09-16T02:43:14.960Z,1018.05
2018-09-16T02:44:14.882Z,1018.04
2018-09-16T02:45:14.863Z,1018.06
2018-09-16T02:46:14.852Z,1018.04
2018-09-16T02:47:14.823Z,1018.04
2018-09-16T02:48:14.804Z,1017.99
2018-09-16T02:49:14.793Z,1017.98
2018-09-16T02:50:14.776Z,1017.97
2018-09-16T02:51:14.746Z,1017.96
2018-09-16T02:52:14.726Z,1017.92
2018-09-16T02:53:14.708Z,1017.90
2018-09-16T02:54:14.692Z,1017.90
2018-09-16T02:55:14.669Z,1017.89
2018-09-16T02:56:14.653Z,1017.88
2018-09-16T02:57:14.629Z,1017.85
2018-09-16T02:58:14.611Z,1017.82
2018-09-16T02:59:14.591Z,1017.80
2018-09-16T03:00:14.573Z,1017.79
2018-09-16T03:01:14.557Z,1017.81
2018-09-16T03:02:14.539Z,1017.81
2018-09-16T03:03:14.518Z,1017.83
2018-09-16T03:04:14.494Z,1017.86
2018-09-16T03:05:14.478Z,1017.86
2018-09-16T03:06:14.455Z,1017.84
2018-09-16T03:07:14.433Z,1017.81
2018-09-16T03:08:14.421Z,1017.86
2018-09-16T03:09:14.396Z,1017.88
2018-09-16T03:10:14.376Z,1017.88
2018-09-16T03:11:14.356Z,1017.87
2018-09-16T03:12:14.339Z,1017.88
2018-09-16T03:13:14.320Z,1017.87
2018-09-16T03:14:14.300Z,1017.90
2018-09-16T03:15:14.279Z,1017.89
2018-09-16T03:16:14.260Z,1017.89
2018-09-16T03:17:14.241Z,1017.90
2018-09-16T03:18:14.225Z,1017.86
2018-09-16T03:19:14.208Z,1017.90
2018-09-16T03:20:14.185Z,1017.85
2018-09-16T03:21:14.164Z,1017.85
2018-09-16T03:22:14.145Z,1017.84
2018-09-16T03:23:14.122Z,1017.85
2018-09-16T03:24:14.107Z,1017.80
2018-09-16T03:25:14.086Z,1017.77
2018-09-16T03:26:14.067Z,1017.81
2018-09-16T03:27:14.048Z,1017.79
2018-09-16T03:28:14.029Z,1017.78
2018-09-16T03:29:14.008Z,1017.76
2018-09-16T03:30:13.992Z,1017.81
2018-09-16T03:31:13.967Z,1017.76
2018-09-16T03:32:13.948Z,1017.75
2018-09-16T03:33:13.930Z,1017.77
2018-09-16T03:34:13.910Z,1017.78
2018-09-16T03:35:13.889Z,1017.78
2018-09-16T03:36:13.872Z,1017.72
2018-09-16T03:37:13.851Z,1017.71
2018-09-16T03:38:13.833Z,1017.72
2018-09-16T03:39:13.813Z,1017.68
2018-09-16T03:40:13.796Z,1017.67
2018-09-16T03:41:13.773Z,1017.69
2018-09-16T03:42:13.757Z,1017.68
2018-09-16T03:43:13.732Z,1017.70
2018-09-16T03:44:13.719Z,1017.67
2018-09-16T03:45:13.699Z,1017.63
2018-09-16T03:46:13.677Z,1017.59
2018-09-16T03:47:13.657Z,1017.59
2018-09-16T03:48:13.637Z,1017.58
2018-09-16T03:49:13.619Z,1017.59
2018-09-16T03:50:13.597Z,1017.56
2018-09-16T03:51:13.579Z,1017.59
2018-09-16T03:52:13.562Z,1017.60
2018-09-16T03:53:13.539Z,1017.60
2018-09-16T03:54:13.522Z,1017.56
2018-09-16T03:55:13.500Z,1017.55
2018-09-16T03:56:13.485Z,1017.51
2018-09-16T03:57:13.463Z,1017.51
2018-09-16T03:58:13.453Z,1017.50
2018-09-16T03:59:13.426Z,1017.52
2018-09-16T04:00:13.416Z,1017.53
2018-09-16T04:01:13.384Z,1017.50
2018-09-16T04:02:13.364Z,1017.50
2018-09-16T04:03:13.345Z,1017.50
2018-09-16T04:04:13.325Z,1017.49
2018-09-16T04:05:13.309Z,1017.51
2018-09-16T04:06:13.286Z,1017.48
2018-09-16T04:07:13.267Z,1017.51
2018-09-16T04:08:13.248Z,1017.53
2018-09-16T04:09:13.230Z,1017.54
2018-09-16T04:10:13.210Z,1017.60
2018-09-16T04:11:13.189Z,1017.56
2018-09-16T04:12:13.168Z,1017.57
2018-09-16T04:13:13.149Z,1017.60
2018-09-16T04:14:13.132Z,1017.64
2018-09-16T04:15:13.111Z,1017.66
2018-09-16T04:16:13.092Z,1017.66
2018-09-16T04:17:13.071Z,1017.62
2018-09-16T04:18:13.052Z,1017.67
2018-09-16T04:19:13.033Z,1017.64
2018-09-16T04:20:13.017Z,1017.64
2018-09-16T04:21:13.085Z,1017.67
2018-09-16T04:22:12.975Z,1017.61
2018-09-16T04:23:12.953Z,1017.64
2018-09-16T04:24:12.935Z,1017.63
2018-09-16T04:25:12.914Z,1017.61
2018-09-16T04:26:12.899Z,1017.61
2018-09-16T04:27:12.875Z,1017.61
2018-09-16T04:28:12.855Z,1017.65
2018-09-16T04:29:12.837Z,1017.62
2018-09-16T04:30:12.816Z,1017.66
2018-09-16T04:31:12.797Z,1017.65
2018-09-16T04:32:12.778Z,1017.68
2018-09-16T04:33:12.831Z,1017.67
2018-09-16T04:34:12.739Z,1017.70
2018-09-16T04:35:12.715Z,1017.72
2018-09-16T04:36:12.703Z,1017.74
2018-09-16T04:37:12.679Z,1017.74
2018-09-16T04:38:12.662Z,1017.80
2018-09-16T04:39:12.637Z,1017.77
2018-09-16T04:40:12.619Z,1017.79
2018-09-16T04:41:12.602Z,1017.79
2018-09-16T04:42:12.583Z,1017.79
2018-09-16T04:43:12.561Z,1017.79
2018-09-16T04:44:12.544Z,1017.81
2018-09-16T04:45:12.520Z,1017.78
2018-09-16T04:46:12.502Z,1017.84
2018-09-16T04:47:12.482Z,1017.85
2018-09-16T04:48:12.473Z,1017.88
2018-09-16T04:49:12.443Z,1017.81
2018-09-16T04:50:12.424Z,1017.86
2018-09-16T04:51:12.407Z,1017.83
2018-09-16T04:52:12.385Z,1017.87
2018-09-16T04:53:12.364Z,1017.87
2018-09-16T04:54:12.345Z,1017.91
2018-09-16T04:55:12.329Z,1017.92
2018-09-16T04:56:12.303Z,1017.92
2018-09-16T04:57:12.285Z,1017.89
2018-09-16T04:58:12.267Z,1017.87
2018-09-16T04:59:12.245Z,1017.84
2018-09-16T05:00:12.233Z,1017.85
2018-09-16T05:01:12.271Z,1017.85
2018-09-16T05:02:12.186Z,1017.87
2018-09-16T05:03:12.181Z,1017.82
2018-09-16T05:04:12.156Z,1017.86
2018-09-16T05:05:12.127Z,1017.89
2018-09-16T05:06:12.112Z,1017.89
2018-09-16T05:07:12.092Z,1017.93
2018-09-16T05:08:12.066Z,1017.94
2018-09-16T05:09:12.045Z,1017.94
2018-09-16T05:10:12.027Z,1017.94
2018-09-16T05:11:12.011Z,1017.94
2018-09-16T05:12:11.986Z,1017.92
2018-09-16T05:13:11.968Z,1017.90
2018-09-16T05:14:11.949Z,1017.94
2018-09-16T05:15:11.928Z,1017.96
2018-09-16T05:16:11.908Z,1017.92
2018-09-16T05:17:11.889Z,1017.96
2018-09-16T05:18:11.871Z,1017.95
2018-09-16T05:19:11.849Z,1017.94
2018-09-16T05:20:11.830Z,1017.91
2018-09-16T05:21:11.816Z,1017.91
2018-09-16T05:22:11.792Z,1017.91
2018-09-16T05:23:11.773Z,1017.89
2018-09-16T05:24:11.751Z,1017.87
2018-09-16T05:25:11.731Z,1017.94
2018-09-16T05:26:11.710Z,1017.93
2018-09-16T05:27:11.698Z,1017.89
2018-09-16T05:28:11.673Z,1017.89
2018-09-16T05:29:11.652Z,1017.88
2018-09-16T05:30:11.631Z,1017.88
2018-09-16T05:31:11.620Z,1017.88
2018-09-16T05:32:11.591Z,1017.91
2018-09-16T05:33:11.573Z,1017.87
2018-09-16T05:34:11.554Z,1017.86
2018-09-16T05:35:11.538Z,1017.87
2018-09-16T05:36:11.521Z,1017.86
2018-09-16T05:37:11.493Z,1017.92
2018-09-16T05:38:11.475Z,1017.94
2018-09-16T05:39:11.452Z,1017.92
2018-09-16T05:40:11.434Z,1017.94
2018-09-16T05:41:11.417Z,1017.93
2018-09-16T05:42:11.400Z,1017.96
2018-09-16T05:43:11.408Z,1017.98
2018-09-16T05:44:11.358Z,1018.02
2018-09-16T05:45:11.335Z,1017.98
2018-09-16T05:46:11.319Z,1018.06
2018-09-16T05:47:11.295Z,1018.05
2018-09-16T05:48:11.284Z,1018.08
2018-09-16T05:49:11.258Z,1018.08
2018-09-16T05:50:11.254Z,1018.08
2018-09-16T05:51:11.219Z,1018.09
2018-09-16T05:52:11.196Z,1018.04
2018-09-16T05:53:11.217Z,1018.04
2018-09-16T05:54:11.162Z,1018.01
2018-09-16T05:55:11.139Z,1018.01
2018-09-16T05:56:11.119Z,1018.00
2018-09-16T05:57:11.117Z,1017.99
2018-09-16T05:58:11.081Z,1017.97
2018-09-16T05:59:11.177Z,1017.95
2018-09-16T06:00:11.046Z,1017.97
2018-09-16T06:01:11.020Z,1017.99
2018-09-16T06:02:11.013Z,1018.01
2018-09-16T06:03:10.986Z,1017.99
2018-09-16T06:04:10.963Z,1017.97
2018-09-16T06:05:11.018Z,1017.96
2018-09-16T06:06:10.923Z,1017.96
2018-09-16T06:07:10.917Z,1017.97
2018-09-16T06:08:10.884Z,1017.98
2018-09-16T06:09:10.862Z,1017.96
2018-09-16T06:10:10.844Z,1017.95
2018-09-16T06:11:10.835Z,1017.94
2018-09-16T06:12:10.806Z,1017.90
2018-09-16T06:13:10.794Z,1017.92
2018-09-16T06:14:10.768Z,1017.91
2018-09-16T06:15:10.745Z,1017.88
2018-09-16T06:16:10.729Z,1017.94
2018-09-16T06:17:10.706Z,1017.91
2018-09-16T06:18:10.689Z,1017.91
2018-09-16T06:19:10.666Z,1017.92
2018-09-16T06:20:10.692Z,1017.93
2018-09-16T06:21:10.634Z,1017.92
2018-09-16T06:22:10.611Z,1017.93
2018-09-16T06:23:10.588Z,1017.94
2018-09-16T06:24:10.569Z,1017.92
2018-09-16T06:25:10.550Z,1017.91
2018-09-16T06:26:10.534Z,1017.90
2018-09-16T06:27:10.515Z,1017.92
2018-09-16T06:28:10.496Z,1017.92
2018-09-16T06:29:10.474Z,1017.87
2018-09-16T06:30:10.457Z,1017.87
2018-09-16T06:31:10.432Z,1017.86
2018-09-16T06:32:10.411Z,1017.88
2018-09-16T06:33:10.396Z,1017.87
2018-09-16T06:34:10.375Z,1017.87
2018-09-16T06:35:10.353Z,1017.89
2018-09-16T06:36:10.338Z,1017.91
2018-09-16T06:37:10.314Z,1017.91
2018-09-16T06:38:10.298Z,1017.90
2018-09-16T06:39:10.275Z,1017.89
2018-09-16T06:40:10.258Z,1017.89
2018-09-16T06:41:10.268Z,1017.90
2018-09-16T06:42:10.221Z,1017.86
2018-09-16T06:43:10.196Z,1017.86
2018-09-16T06:44:10.187Z,1017.86
2018-09-16T06:45:10.159Z,1017.84
2018-09-16T06:46:10.160Z,1017.81
2018-09-16T06:47:10.127Z,1017.83
2018-09-16T06:48:10.106Z,1017.82
2018-09-16T06:49:10.085Z,1017.81
2018-09-16T06:50:10.066Z,1017.84
2018-09-16T06:51:10.050Z,1017.85
2018-09-16T06:52:10.029Z,1017.87
2018-09-16T06:53:10.009Z,1017.85
2018-09-16T06:54:09.993Z,1017.87
2018-09-16T06:55:09.967Z,1017.90
2018-09-16T06:56:09.948Z,1017.88
2018-09-16T06:57:09.929Z,1017.88
2018-09-16T06:58:09.908Z,1017.88
2018-09-16T06:59:09.889Z,1017.89
2018-09-16T07:00:09.871Z,1017.89
2018-09-16T07:01:09.862Z,1017.87
2018-09-16T07:02:09.833Z,1017.86
2018-09-16T07:03:09.813Z,1017.89
2018-09-16T07:04:09.794Z,1017.85
2018-09-16T07:05:09.781Z,1017.82
2018-09-16T07:06:09.756Z,1017.79
2018-09-16T07:07:09.739Z,1017.84
2018-09-16T07:08:09.724Z,1017.83
2018-09-16T07:09:09.701Z,1017.85
2018-09-16T07:10:09.690Z,1017.87
2018-09-16T07:11:09.661Z,1017.82
2018-09-16T07:12:09.646Z,1017.86
2018-09-16T07:13:09.622Z,1017.86
2018-09-16T07:14:09.615Z,1017.87
2018-09-16T07:15:09.592Z,1017.86
2018-09-16T07:16:09.569Z,1017.89
2018-09-16T07:17:09.546Z,1017.88
2018-09-16T07:18:09.533Z,1017.91
2018-09-16T07:19:09.509Z,1017.93
2018-09-16T07:20:09.551Z,1017.93
2018-09-16T07:21:09.471Z,1017.93
2018-09-16T07:22:09.457Z,1017.90
2018-09-16T07:23:09.439Z,1017.89
2018-09-16T07:24:09.418Z,1017.87
2018-09-16T07:25:09.403Z,1017.83
2018-09-16T07:26:09.377Z,1017.83
2018-09-16T07:27:09.374Z,1017.84
2018-09-16T07:28:09.350Z,1017.79
2018-09-16T07:29:09.323Z,1017.78
2018-09-16T07:30:09.303Z,1017.79
2018-09-16T07:31:09.283Z,1017.78
2018-09-16T07:32:09.263Z,1017.75
2018-09-16T07:33:09.255Z,1017.77
2018-09-16T07:34:09.234Z,1017.80
2018-09-16T07:35:09.207Z,1017.79
2018-09-16T07:36:09.188Z,1017.78
2018-09-16T07:37:09.180Z,1017.80
2018-09-16T07:38:09.156Z,1017.81
2018-09-16T07:39:09.132Z,1017.84
2018-09-16T07:40:09.110Z,1017.83
2018-09-16T07:41:09.093Z,1017.85
2018-09-16T07:42:09.074Z,1017.85
2018-09-16T07:43:09.059Z,1017.86
2018-09-16T07:44:09.049Z,1017.87
2018-09-16T07:45:09.018Z,1017.82
2018-09-16T07:46:09.002Z,1017.86
2018-09-16T07:47:08.980Z,1017.88
2018-09-16T07:48:08.963Z,1017.88
2018-09-16T07:49:08.954Z,1017.86
2018-09-16T07:50:08.928Z,1017.89
2018-09-16T07:51:08.913Z,1017.91
2018-09-16T07:52:08.889Z,1017.93
2018-09-16T07:53:08.880Z,1017.94
2018-09-16T07:54:08.852Z,1017.92
2018-09-16T07:55:08.833Z,1017.94
2018-09-16T07:56:08.814Z,1017.90
2018-09-16T07:57:08.798Z,1017.92
2018-09-16T07:58:08.777Z,1017.89
2018-09-16T07:59:08.759Z,1017.86
2018-09-16T08:00:08.743Z,1017.89
2018-09-16T08:01:08.728Z,1017.90
2018-09-16T08:02:08.715Z,1017.85
2018-09-16T08:03:08.687Z,1017.85
2018-09-16T08:04:08.667Z,1017.95
2018-09-16T08:05:08.651Z,1017.93
2018-09-16T08:06:08.707Z,1017.96
2018-09-16T08:07:08.618Z,1017.92
2018-09-16T08:08:08.602Z,1017.95
2018-09-16T08:09:08.575Z,1017.92
2018-09-16T08:10:08.558Z,1017.87
2018-09-16T08:11:08.539Z,1017.86
2018-09-16T08:12:08.523Z,1017.91
2018-09-16T08:13:08.504Z,1017.93
2018-09-16T08:14:08.495Z,1017.93
2018-09-16T08:15:08.467Z,1017.93
2018-09-16T08:16:08.479Z,1017.92
2018-09-16T08:17:08.431Z,1017.89
2018-09-16T08:18:08.411Z,1017.91
2018-09-16T08:19:08.392Z,1017.91
2018-09-16T08:20:08.376Z,1017.89
2018-09-16T08:21:08.456Z,1017.89
2018-09-16T08:22:08.340Z,1017.90
2018-09-16T08:23:08.323Z,1017.88
2018-09-16T08:24:08.305Z,1017.89
2018-09-16T08:25:08.293Z,1017.91
2018-09-16T08:26:08.275Z,1017.93
2018-09-16T08:27:08.248Z,1017.94
2018-09-16T08:28:08.234Z,1017.95
2018-09-16T08:29:08.215Z,1017.94
2018-09-16T08:30:08.196Z,1017.97
2018-09-16T08:31:08.179Z,1018.00
2018-09-16T08:32:08.162Z,1017.97
2018-09-16T08:33:08.152Z,1017.92
2018-09-16T08:34:08.123Z,1017.91
2018-09-16T08:35:08.106Z,1017.94
2018-09-16T08:36:08.092Z,1017.94
2018-09-16T08:37:08.072Z,1017.96
2018-09-16T08:38:08.154Z,1017.99
2018-09-16T08:39:08.035Z,1017.94
2018-09-16T08:40:08.031Z,1017.94
2018-09-16T08:41:07.999Z,1017.96
2018-09-16T08:42:07.987Z,1017.96
2018-09-16T08:43:07.974Z,1017.95
2018-09-16T08:44:07.947Z,1017.93
2018-09-16T08:45:07.928Z,1017.85
2018-09-16T08:46:07.914Z,1017.88
2018-09-16T08:47:07.894Z,1017.87
2018-09-16T08:48:07.878Z,1017.81
2018-09-16T08:49:07.878Z,1017.83
2018-09-16T08:50:07.843Z,1017.83
2018-09-16T08:51:07.824Z,1017.82
2018-09-16T08:52:07.858Z,1017.78
2018-09-16T08:53:07.789Z,1017.79
2018-09-16T08:54:07.773Z,1017.81
2018-09-16T08:55:07.756Z,1017.80
2018-09-16T08:56:07.737Z,1017.81
2018-09-16T08:57:07.720Z,1017.78
2018-09-16T08:58:07.757Z,1017.73
2018-09-16T08:59:07.683Z,1017.73
2018-09-16T09:00:07.667Z,1017.72
2018-09-16T09:01:07.654Z,1017.70
2018-09-16T09:02:07.638Z,1017.69
2018-09-16T09:03:07.618Z,1017.67
2018-09-16T09:04:07.603Z,1017.67
2018-09-16T09:05:07.588Z,1017.65
2018-09-16T09:06:07.571Z,1017.63
2018-09-16T09:07:07.550Z,1017.62
2018-09-16T09:08:07.530Z,1017.59
2018-09-16T09:09:07.517Z,1017.60
2018-09-16T09:10:07.504Z,1017.58
2018-09-16T09:11:07.491Z,1017.61
2018-09-16T09:12:07.473Z,1017.60
2018-09-16T09:13:07.473Z,1017.63
2018-09-16T09:14:07.435Z,1017.62
2018-09-16T09:15:07.410Z,1017.63
2018-09-16T09:16:07.399Z,1017.63
2018-09-16T09:17:07.380Z,1017.62
2018-09-16T09:18:07.360Z,1017.64
2018-09-16T09:19:07.350Z,1017.68
2018-09-16T09:20:07.326Z,1017.62
2018-09-16T09:21:07.307Z,1017.65
2018-09-16T09:22:07.611Z,1017.59
2018-09-16T09:23:07.280Z,1017.62
2018-09-16T09:24:07.257Z,1017.55
2018-09-16T09:25:07.241Z,1017.59
2018-09-16T09:26:07.240Z,1017.58
2018-09-16T09:27:07.214Z,1017.54
2018-09-16T09:28:07.202Z,1017.57
2018-09-16T09:29:07.209Z,1017.54
2018-09-16T09:30:07.162Z,1017.56
2018-09-16T09:31:07.140Z,1017.61
2018-09-16T09:32:07.124Z,1017.56
2018-09-16T09:33:07.109Z,1017.60
2018-09-16T09:34:07.096Z,1017.59
2018-09-16T09:35:07.079Z,1017.62
2018-09-16T09:36:07.059Z,1017.61
2018-09-16T09:37:07.042Z,1017.61
2018-09-16T09:38:07.096Z,1017.61
2018-09-16T09:39:07.010Z,1017.57
2018-09-16T09:40:06.998Z,1017.56
2018-09-16T09:41:06.988Z,1017.57
2018-09-16T09:42:06.974Z,1017.50
2018-09-16T09:43:06.942Z,1017.54
2018-09-16T09:44:06.930Z,1017.53
2018-09-16T09:45:06.912Z,1017.50
2018-09-16T09:46:06.900Z,1017.54
2018-09-16T09:47:06.895Z,1017.53
2018-09-16T09:48:06.863Z,1017.53
2018-09-16T09:49:06.847Z,1017.45
2018-09-16T09:50:06.828Z,1017.50
2018-09-16T09:51:06.870Z,1017.50
2018-09-16T09:52:06.802Z,1017.45
2018-09-16T09:53:06.782Z,1017.48
2018-09-16T09:54:06.773Z,1017.51
2018-09-16T09:55:06.752Z,1017.49
2018-09-16T09:56:06.729Z,1017.45
2018-09-16T09:57:06.718Z,1017.49
2018-09-16T09:58:06.698Z,1017.46
2018-09-16T09:59:06.768Z,1017.42
2018-09-16T10:00:06.665Z,1017.45
2018-09-16T10:01:06.648Z,1017.40
2018-09-16T10:02:06.641Z,1017.45
2018-09-16T10:03:06.616Z,1017.35
2018-09-16T10:04:06.605Z,1017.40
2018-09-16T10:05:06.585Z,1017.37
2018-09-16T10:06:06.625Z,1017.36
2018-09-16T10:07:06.550Z,1017.37
2018-09-16T10:08:06.537Z,1017.36
2018-09-16T10:09:06.520Z,1017.38
2018-09-16T10:10:06.504Z,1017.40
2018-09-16T10:11:06.487Z,1017.40
2018-09-16T10:12:06.474Z,1017.37
2018-09-16T10:13:06.456Z,1017.40
2018-09-16T10:14:06.440Z,1017.38
2018-09-16T10:15:06.423Z,1017.40
2018-09-16T10:16:06.415Z,1017.38
2018-09-16T10:17:06.392Z,1017.42
2018-09-16T10:18:06.383Z,1017.36
2018-09-16T10:19:06.366Z,1017.35
2018-09-16T10:20:06.347Z,1017.38
2018-09-16T10:21:06.330Z,1017.35
2018-09-16T10:22:06.310Z,1017.29
2018-09-16T10:23:06.294Z,1017.28
2018-09-16T10:24:06.399Z,1017.26
2018-09-16T10:25:06.268Z,1017.26
2018-09-16T10:26:06.255Z,1017.23
2018-09-16T10:27:06.233Z,1017.24
2018-09-16T10:28:06.215Z,1017.23
2018-09-16T10:29:06.199Z,1017.25
2018-09-16T10:30:06.184Z,1017.21
2018-09-16T10:31:06.177Z,1017.18
2018-09-16T10:32:06.161Z,1017.18
2018-09-16T10:33:06.141Z,1017.12
2018-09-16T10:34:06.132Z,1017.16
2018-09-16T10:35:06.112Z,1017.17
2018-09-16T10:36:06.100Z,1017.19
2018-09-16T10:37:06.077Z,1017.15
2018-09-16T10:38:06.060Z,1017.11
2018-09-16T10:39:06.044Z,1017.15
2018-09-16T10:40:06.040Z,1017.15
2018-09-16T10:41:06.014Z,1017.17
2018-09-16T10:42:06.003Z,1017.15
2018-09-16T10:43:05.985Z,1017.17
2018-09-16T10:44:05.982Z,1017.19
2018-09-16T10:45:05.954Z,1017.14
2018-09-16T10:46:05.948Z,1017.16
2018-09-16T10:47:05.922Z,1017.18
2018-09-16T10:48:05.905Z,1017.18
2018-09-16T10:49:05.897Z,1017.15
2018-09-16T10:50:05.882Z,1017.17
2018-09-16T10:51:05.862Z,1017.14
2018-09-16T10:52:05.846Z,1017.18
2018-09-16T10:53:05.831Z,1017.12
2018-09-16T10:54:05.815Z,1017.11
2018-09-16T10:55:05.802Z,1017.10
2018-09-16T10:56:05.783Z,1017.10
2018-09-16T10:57:05.789Z,1017.12
2018-09-16T10:58:05.768Z,1017.17
2018-09-16T10:59:05.752Z,1017.18
2018-09-16T11:00:05.739Z,1017.22
2018-09-16T11:01:05.707Z,1017.14
2018-09-16T11:02:05.693Z,1017.12
2018-09-16T11:03:05.680Z,1017.14
2018-09-16T11:04:05.666Z,1017.05
2018-09-16T11:05:05.654Z,1017.12
2018-09-16T11:06:05.636Z,1017.08
2018-09-16T11:07:05.616Z,1017.14
2018-09-16T11:08:05.615Z,1017.07
2018-09-16T11:09:05.587Z,1017.12
2018-09-16T11:10:05.569Z,1017.14
2018-09-16T11:11:05.555Z,1017.06
2018-09-16T11:12:05.538Z,1017.04
2018-09-16T11:13:05.533Z,1016.99
2018-09-16T11:14:05.509Z,1017.01
2018-09-16T11:15:05.492Z,1016.99
2018-09-16T11:16:05.483Z,1017.03
2018-09-16T11:17:05.466Z,1016.99
2018-09-16T11:18:05.451Z,1016.97
2018-09-16T11:19:05.450Z,1016.99
2018-09-16T11:20:05.416Z,1016.95
2018-09-16T11:21:05.405Z,1016.95
2018-09-16T11:22:05.461Z,1016.88
2018-09-16T11:23:05.372Z,1016.91
2018-09-16T11:24:05.356Z,1016.89
2018-09-16T11:25:05.345Z,1016.84
2018-09-16T11:26:05.327Z,1016.85
2018-09-16T11:27:05.310Z,1016.78
2018-09-16T11:28:05.309Z,1016.78
2018-09-16T11:29:05.296Z,1016.73
2018-09-16T11:30:05.346Z,1016.73
2018-09-16T11:31:05.263Z,1016.76
2018-09-16T11:32:05.250Z,1016.75
2018-09-16T11:33:05.231Z,1016.71
2018-09-16T11:34:05.212Z,1016.70
2018-09-16T11:35:05.201Z,1016.69
2018-09-16T11:36:05.187Z,1016.72
2018-09-16T11:37:05.163Z,1016.66
2018-09-16T11:38:05.147Z,1016.66
2018-09-16T11:39:05.131Z,1016.66
2018-09-16T11:40:05.122Z,1016.65
2018-09-16T11:41:05.106Z,1016.59
2018-09-16T11:42:05.093Z,1016.57
2018-09-16T11:43:05.077Z,1016.57
2018-09-16T11:44:05.060Z,1016.63
2018-09-16T11:45:05.046Z,1016.60
2018-09-16T11:46:05.031Z,1016.62
2018-09-16T11:47:05.034Z,1016.63
2018-09-16T11:48:04.995Z,1016.61
2018-09-16T11:49:04.998Z,1016.64
2018-09-16T11:50:04.973Z,1016.61
2018-09-16T11:51:04.950Z,1016.58
2018-09-16T11:52:04.938Z,1016.58
2018-09-16T11:53:04.925Z,1016.62
2018-09-16T11:54:04.903Z,1016.59
2018-09-16T11:55:04.893Z,1016.57
2018-09-16T11:56:04.878Z,1016.54
2018-09-16T11:57:04.857Z,1016.49
2018-09-16T11:58:04.848Z,1016.48
2018-09-16T11:59:04.831Z,1016.47
2018-09-16T12:00:04.819Z,1016.48
2018-09-16T12:01:04.797Z,1016.47
2018-09-16T12:02:04.897Z,1016.53
2018-09-16T12:03:04.774Z,1016.49
2018-09-16T12:04:04.761Z,1016.50
2018-09-16T12:05:04.743Z,1016.46